Time;durP1;ratioP1;P1;durP2;ratioP2;P2;SDS_P1;SDS_P2;PMS_P1;PMS_P2;Temp;Humidity;BMP_temperature;BMP_pressure;BME280_temperature;BME280_humidity;BME280_pressure;Samples;Min_cycle;Max_cycle;Signal;HPM_P1;HPM_P2
2023/05/09 00:00:11;;;;;;;5.43;3.05;;;;;;;17.08;53.66;99220.44;4992606;28;20038;-86
2023/05/09 00:02:37;;;;;;;4.38;2.72;;;;;;;17.08;53.51;99216.97;4993363;28;20117;-85
2023/05/09 00:05:04;;;;;;;5.57;3.03;;;;;;;17.10;53.56;99218.47;4959068;28;20493;-86
2023/05/09 00:07:30;;;;;;;8.50;3.25;;;;;;;17.09;53.79;99210.72;4993069;28;20506;-87
2023/05/09 00:09:56;;;;;;;6.32;2.92;;;;;;;17.05;53.95;99204.09;4992186;28;20038;-85
2023/05/09 00:12:22;;;;;;;4.90;3.00;;;;;;;17.03;53.92;99200.75;4991956;28;20073;-85
2023/05/09 00:14:50;;;;;;;7.82;3.25;;;;;;;17.03;54.01;99206.88;4975405;28;20410;-85
2023/05/09 00:17:35;;;;;;;7.22;3.50;;;;;;;17.03;54.13;99211.31;4959701;28;20128;-85
2023/05/09 00:20:04;;;;;;;5.07;2.97;;;;;;;16.97;54.19;99200.38;4993257;28;20042;-85
2023/05/09 00:22:29;;;;;;;8.00;3.42;;;;;;;16.97;54.23;99203.00;4992127;28;20097;-86
2023/05/09 00:24:54;;;;;;;8.10;3.50;;;;;;;16.96;54.46;99208.44;4975413;28;20042;-85
2023/05/09 00:27:20;;;;;;;4.75;3.20;;;;;;;16.94;54.26;99200.66;4975346;28;20049;-85
2023/05/09 00:29:45;;;;;;;5.07;3.20;;;;;;;16.97;53.77;99203.00;4975607;28;20050;-86
2023/05/09 00:32:11;;;;;;;5.47;3.35;;;;;;;16.98;53.57;99203.81;4993018;28;20049;-84
2023/05/09 00:34:36;;;;;;;7.70;3.28;;;;;;;16.97;53.59;99197.72;4993240;28;20383;-84
2023/05/09 00:37:02;;;;;;;5.90;3.20;;;;;;;16.99;53.38;99198.41;4991497;28;20053;-84
2023/05/09 00:39:27;;;;;;;4.35;3.15;;;;;;;16.97;53.41;99202.19;4992737;28;20038;-81
2023/05/09 00:41:54;;;;;;;5.53;2.92;;;;;;;16.95;53.41;99198.84;4992845;28;20042;-83
2023/05/09 00:44:20;;;;;;;7.10;3.15;;;;;;;16.94;53.06;99197.22;4975188;28;20061;-83
2023/05/09 00:46:45;;;;;;;7.40;3.08;;;;;;;16.97;52.91;99203.00;4976033;28;20039;-82
2023/05/09 00:49:11;;;;;;;4.88;3.25;;;;;;;16.92;52.35;99189.44;4975410;28;20073;-83
2023/05/09 00:51:39;;;;;;;3.78;2.67;;;;;;;16.95;52.13;99199.69;4958393;28;20045;-84
2023/05/09 00:54:05;;;;;;;6.93;3.00;;;;;;;16.98;52.19;99194.13;4975504;28;20034;-81
2023/05/09 00:56:30;;;;;;;12.75;3.08;;;;;;;16.98;52.16;99198.56;4975475;28;20551;-82
2023/05/09 00:58:56;;;;;;;4.82;2.85;;;;;;;17.01;52.06;99200.91;4975106;28;20042;-82
2023/05/09 01:01:21;;;;;;;4.82;2.90;;;;;;;17.04;51.84;99212.97;4990986;28;20135;-82
2023/05/09 01:03:47;;;;;;;4.47;3.13;;;;;;;16.99;51.53;99202.88;4958969;28;20039;-82
2023/05/09 01:06:30;;;;;;;5.60;2.95;;;;;;;16.99;51.74;99206.31;5006097;28;20414;-83
2023/05/09 01:09:00;;;;;;;4.78;3.00;;;;;;;17.00;51.64;99205.34;5011928;28;20489;-82
2023/05/09 01:11:35;;;;;;;3.58;2.80;;;;;;;16.99;51.69;99213.41;4994358;28;20038;-82
2023/05/09 01:14:19;;;;;;;3.38;2.78;;;;;;;16.97;51.74;99210.09;5010951;28;20187;-82
2023/05/09 01:17:11;;;;;;;3.83;2.70;;;;;;;16.98;51.74;99211.75;5012495;28;20030;-82
2023/05/09 01:19:42;;;;;;;5.35;2.72;;;;;;;16.97;51.82;99210.09;4978521;28;20107;-82
2023/05/09 01:22:07;;;;;;;5.72;2.83;;;;;;;16.95;51.59;99210.25;5012131;28;20041;-81
2023/05/09 01:24:51;;;;;;;6.47;2.83;;;;;;;16.95;51.73;99198.84;5011159;28;20050;-83
2023/05/09 01:27:56;;;;;;;5.93;2.85;;;;;;;16.92;51.59;99201.78;4998428;28;20041;-82
2023/05/09 01:30:22;;;;;;;4.55;2.95;;;;;;;16.90;51.57;99209.00;4994301;28;20080;-82
2023/05/09 01:32:48;;;;;;;5.63;2.97;;;;;;;16.85;51.72;99206.78;4977658;28;20073;-82
2023/05/09 01:35:14;;;;;;;5.15;2.60;;;;;;;16.82;51.51;99205.28;4961895;28;20042;-82
2023/05/09 01:37:41;;;;;;;6.40;3.03;;;;;;;16.82;51.75;99207.91;4977569;28;20116;-83
2023/05/09 01:40:14;;;;;;;3.85;2.58;;;;;;;16.83;51.81;99211.38;4961423;28;20062;-82
2023/05/09 01:42:44;;;;;;;5.10;2.80;;;;;;;16.82;51.74;99215.81;4978300;28;20042;-82
2023/05/09 01:45:10;;;;;;;6.20;2.95;;;;;;;16.80;52.04;99219.56;4977703;28;20098;-82
2023/05/09 01:47:36;;;;;;;8.00;2.78;;;;;;;16.79;51.89;99210.00;4961528;28;20030;-82
2023/05/09 01:50:02;;;;;;;4.82;2.75;;;;;;;16.76;51.72;99211.13;4960878;28;20073;-81
2023/05/09 01:52:27;;;;;;;5.32;2.80;;;;;;;16.71;51.75;99204.63;4961017;28;20073;-82
2023/05/09 01:54:53;;;;;;;9.35;2.70;;;;;;;16.77;51.59;99225.94;4961007;28;20050;-81
2023/05/09 01:57:18;;;;;;;4.85;2.70;;;;;;;16.74;51.73;99218.34;4976630;28;20038;-82
2023/05/09 01:59:44;;;;;;;5.13;2.90;;;;;;;16.76;51.48;99228.72;4977140;28;20038;-81
2023/05/09 02:02:09;;;;;;;5.65;2.80;;;;;;;16.73;51.61;99221.13;4977068;28;20077;-82
2023/05/09 02:04:35;;;;;;;4.57;2.90;;;;;;;16.72;51.57;99216.84;4976120;28;20533;-83
2023/05/09 02:07:00;;;;;;;6.50;2.88;;;;;;;16.74;51.58;99223.59;4961512;28;20409;-83
2023/05/09 02:09:26;;;;;;;5.15;2.97;;;;;;;16.72;51.46;99230.03;4978243;28;20050;-83
2023/05/09 02:11:51;;;;;;;4.57;2.83;;;;;;;16.74;51.43;99233.34;4978425;28;20113;-82
2023/05/09 02:14:17;;;;;;;5.05;2.75;;;;;;;16.71;51.32;99231.81;4978136;28;20041;-83
2023/05/09 02:16:42;;;;;;;5.88;2.88;;;;;;;16.68;51.19;99229.44;4977862;28;20038;-81
2023/05/09 02:19:10;;;;;;;10.15;2.85;;;;;;;16.68;51.20;99226.00;4978236;28;20125;-83
2023/05/09 02:21:35;;;;;;;4.55;2.80;;;;;;;16.67;51.22;99227.81;4977559;28;20395;-83
2023/05/09 02:24:01;;;;;;;3.92;2.72;;;;;;;16.64;51.24;99231.56;4961672;28;20045;-83
2023/05/09 02:26:27;;;;;;;7.55;2.90;;;;;;;16.62;51.11;99232.69;4978302;28;20425;-82
2023/05/09 02:28:52;;;;;;;5.45;2.90;;;;;;;16.60;51.26;99226.72;4977617;28;20034;-82
2023/05/09 02:31:19;;;;;;;6.63;2.70;;;;;;;16.51;51.18;99217.88;4961688;28;20046;-82
2023/05/09 02:33:45;;;;;;;6.03;2.67;;;;;;;16.53;51.16;99233.53;4978065;28;20049;-82
2023/05/09 02:36:11;;;;;;;5.70;2.60;;;;;;;16.45;50.76;99234.25;4977477;28;20450;-82
2023/05/09 02:38:36;;;;;;;3.78;2.20;;;;;;;16.45;50.95;99236.91;4961340;28;20039;-83
2023/05/09 02:41:02;;;;;;;9.50;2.35;;;;;;;16.44;51.16;99245.75;4977652;28;20038;-83
2023/05/09 02:43:27;;;;;;;5.97;3.08;;;;;;;16.44;51.42;99243.94;4976977;28;20046;-82
2023/05/09 02:45:53;;;;;;;4.25;2.47;;;;;;;16.43;51.33;99244.09;4978226;28;20444;-83
2023/05/09 02:48:18;;;;;;;3.88;2.22;;;;;;;16.42;51.08;99248.53;4976942;28;20046;-82
2023/05/09 02:50:44;;;;;;;6.38;2.45;;;;;;;16.39;51.25;99235.66;4977996;28;20078;-82
2023/05/09 02:53:10;;;;;;;4.57;2.60;;;;;;;16.42;51.12;99245.09;4977336;28;20045;-83
2023/05/09 02:55:35;;;;;;;6.15;2.53;;;;;;;16.41;51.16;99241.63;4993918;28;20042;-82
2023/05/09 02:58:01;;;;;;;4.55;2.28;;;;;;;16.39;51.34;99238.28;4976986;28;20038;-82
2023/05/09 03:00:26;;;;;;;7.57;2.22;;;;;;;16.40;51.74;99247.03;4994775;28;20516;-82
2023/05/09 03:02:52;;;;;;;5.15;2.25;;;;;;;16.37;51.71;99250.78;4977891;28;20053;-81
2023/05/09 03:05:17;;;;;;;3.97;2.25;;;;;;;16.37;51.91;99250.78;4981385;28;20074;-81
2023/05/09 03:07:43;;;;;;;4.55;2.30;;;;;;;16.36;51.69;99246.47;4996937;28;20449;-82
2023/05/09 03:10:12;;;;;;;6.00;2.40;;;;;;;16.35;51.72;99244.81;5013602;28;20081;-81
2023/05/09 03:12:38;;;;;;;3.78;2.25;;;;;;;16.34;51.79;99258.97;5012883;28;20034;-82
2023/05/09 03:15:05;;;;;;;4.65;2.47;;;;;;;16.27;51.91;99250.78;5012499;28;20042;-83
2023/05/09 03:17:31;;;;;;;4.03;2.08;;;;;;;16.31;51.73;99261.06;4996112;28;20100;-82
2023/05/09 03:19:56;;;;;;;3.80;2.55;;;;;;;16.33;51.94;99275.72;4980384;28;20034;-82
2023/05/09 03:22:22;;;;;;;4.93;2.53;;;;;;;16.33;51.81;99273.09;4996170;28;20489;-82
2023/05/09 03:24:47;;;;;;;8.07;2.63;;;;;;;16.36;51.65;99280.72;5012501;28;20378;-82
2023/05/09 03:27:13;;;;;;;8.30;2.08;;;;;;;16.38;51.20;99278.78;4996242;28;20132;-82
2023/05/09 03:29:38;;;;;;;5.47;2.42;;;;;;;16.37;51.16;99289.47;4996161;28;20370;-82
2023/05/09 03:32:04;;;;;;;6.38;2.33;;;;;;;16.34;51.22;99280.03;4996917;28;20046;-82
2023/05/09 03:34:30;;;;;;;4.47;2.20;;;;;;;16.41;51.25;99301.38;4996023;28;20520;-82
2023/05/09 03:36:55;;;;;;;5.20;2.80;;;;;;;16.38;51.46;99291.97;4996026;28;20458;-81
2023/05/09 03:39:22;;;;;;;3.80;2.00;;;;;;;16.41;51.81;99304.84;4979161;28;20042;-82
2023/05/09 03:41:48;;;;;;;6.78;2.55;;;;;;;16.33;51.59;99294.16;4997210;28;20046;-77
2023/05/09 03:44:13;;;;;;;4.50;2.42;;;;;;;16.46;55.13;99309.69;5012502;28;20054;-79
2023/05/09 03:46:39;;;;;;;6.47;2.50;;;;;;;16.44;53.29;99299.28;4995475;28;20056;-85
2023/05/09 03:49:04;;;;;;;4.68;2.22;;;;;;;16.43;52.88;99300.28;4996666;28;20490;-87
2023/05/09 03:51:31;;;;;;;4.18;2.25;;;;;;;16.41;52.74;99304.84;4996106;28;20224;-87
2023/05/09 03:53:56;;;;;;;5.22;2.28;;;;;;;16.44;52.38;99314.25;5011562;28;20051;-79
2023/05/09 03:56:22;;;;;;;4.30;2.20;;;;;;;16.43;52.24;99308.19;4995446;28;20030;-78
2023/05/09 03:58:47;;;;;;;5.97;2.92;;;;;;;16.46;51.96;99310.53;4995234;28;20049;-78
2023/05/09 04:01:13;;;;;;;5.47;2.40;;;;;;;16.45;51.66;99313.31;5012942;28;20500;-77
2023/05/09 04:03:39;;;;;;;8.07;2.72;;;;;;;16.42;51.75;99310.94;4994681;28;20111;-77
2023/05/09 04:06:04;;;;;;;4.82;2.97;;;;;;;16.40;51.67;99303.19;5002721;28;20034;-77
2023/05/09 04:08:31;;;;;;;5.75;2.70;;;;;;;16.53;54.68;99321.34;4975548;28;20038;-78
2023/05/09 04:10:56;;;;;;;11.98;3.20;;;;;;;16.52;53.72;99319.66;4991509;28;20133;-79
2023/05/09 04:13:22;;;;;;;6.75;3.00;;;;;;;16.48;53.38;99322.72;4975722;28;20125;-80
2023/05/09 04:15:47;;;;;;;6.55;3.40;;;;;;;16.46;53.08;99328.13;4991601;28;20034;-81
2023/05/09 04:18:13;;;;;;;6.40;3.05;;;;;;;16.40;52.88;99318.16;4975341;28;20026;-80
2023/05/09 04:20:38;;;;;;;7.15;3.25;;;;;;;16.41;52.80;99327.72;4975308;28;20046;-81
2023/05/09 04:23:04;;;;;;;5.63;3.42;;;;;;;16.38;52.74;99325.38;4975244;28;20112;-77
2023/05/09 04:25:30;;;;;;;5.43;2.90;;;;;;;16.36;52.69;99333.41;4991463;28;20410;-77
2023/05/09 04:27:56;;;;;;;6.00;2.80;;;;;;;16.35;52.73;99333.53;4975048;28;20081;-77
2023/05/09 04:30:22;;;;;;;8.40;3.67;;;;;;;16.34;52.64;99343.25;4975240;28;20145;-79
2023/05/09 04:32:48;;;;;;;5.15;3.05;;;;;;;16.31;52.83;99338.28;4991445;28;20061;-77
2023/05/09 04:35:14;;;;;;;5.07;2.72;;;;;;;16.28;52.63;99341.19;4975425;28;20042;-78
2023/05/09 04:37:40;;;;;;;9.38;3.00;;;;;;;16.28;52.80;99335.91;4974550;28;20169;-79
2023/05/09 04:40:07;;;;;;;5.55;3.17;;;;;;;16.25;52.59;99337.00;4991359;28;20035;-79
2023/05/09 04:42:33;;;;;;;5.50;3.20;;;;;;;16.26;52.64;99335.22;4991308;28;20116;-79
2023/05/09 04:44:59;;;;;;;7.05;3.00;;;;;;;16.21;52.75;99335.63;4974907;28;20089;-80
2023/05/09 04:47:25;;;;;;;4.90;3.38;;;;;;;16.25;52.57;99344.09;4974644;28;20038;-80
2023/05/09 04:49:50;;;;;;;6.88;3.45;;;;;;;16.24;52.70;99339.78;4990968;28;20129;-79
2023/05/09 04:52:16;;;;;;;5.60;3.08;;;;;;;16.28;52.45;99346.44;4974668;28;20046;-80
2023/05/09 04:54:41;;;;;;;6.50;2.97;;;;;;;16.31;52.34;99342.72;4991087;28;20035;-80
2023/05/09 04:57:07;;;;;;;8.57;3.03;;;;;;;16.35;51.99;99344.09;4991553;28;20486;-80
2023/05/09 04:59:33;;;;;;;4.90;2.53;;;;;;;16.38;52.08;99339.38;4992353;28;20509;-78
2023/05/09 05:01:59;;;;;;;7.43;3.00;;;;;;;16.43;55.03;99339.78;4996724;28;20043;-78
2023/05/09 05:04:24;;;;;;;9.40;3.05;;;;;;;16.49;54.08;99334.94;4978743;28;20042;-78
2023/05/09 05:06:50;;;;;;;7.82;3.08;;;;;;;16.46;53.84;99341.31;5001921;28;20030;-84
2023/05/09 05:09:21;;;;;;;5.03;2.65;;;;;;;16.70;59.86;99340.03;4991488;28;20042;-89
2023/05/09 05:11:46;;;;;;;6.45;2.97;;;;;;;16.74;58.13;99333.50;4983660;28;20070;-83
2023/05/09 05:14:14;;;;;;;5.22;2.67;;;;;;;16.75;57.21;99337.81;4987607;28;20046;-82
2023/05/09 05:16:40;;;;;;;4.80;3.20;;;;;;;16.71;56.67;99344.34;4987514;28;20425;-85
2023/05/09 05:19:06;;;;;;;5.90;3.30;;;;;;;16.66;56.10;99334.22;4985852;28;20053;-84
2023/05/09 05:21:32;;;;;;;5.53;3.38;;;;;;;16.61;55.60;99333.81;4966134;28;20482;-87
2023/05/09 05:23:58;;;;;;;6.57;3.15;;;;;;;16.58;55.32;99344.63;4987205;28;20086;-87
2023/05/09 05:26:24;;;;;;;8.73;3.28;;;;;;;16.59;55.22;99352.41;4983684;28;20116;-84
2023/05/09 05:28:54;;;;;;;6.50;3.40;;;;;;;16.56;54.79;99352.69;4977229;28;20042;-85
2023/05/09 05:31:25;;;;;;;10.30;3.60;;;;;;;16.70;58.83;99356.69;4998320;28;20053;-87
2023/05/09 05:33:52;;;;;;;13.02;4.07;;;;;;;16.71;57.14;99355.69;5001849;28;20038;-83
2023/05/09 05:36:18;;;;;;;8.65;3.25;;;;;;;16.73;58.64;99355.56;4986257;28;20401;-79
2023/05/09 05:38:44;;;;;;;8.80;3.35;;;;;;;16.93;60.25;99354.56;4982743;28;20418;-77
2023/05/09 05:41:10;;;;;;;11.07;3.78;;;;;;;16.94;58.61;99345.69;5014622;28;20034;-77
2023/05/09 05:43:35;;;;;;;8.02;3.63;;;;;;;16.94;57.32;99350.97;4981550;28;20134;-78
2023/05/09 05:46:01;;;;;;;9.35;3.97;;;;;;;16.92;56.56;99352.94;5014312;28;20474;-76
2023/05/09 05:48:26;;;;;;;10.25;3.47;;;;;;;16.91;56.26;99360.97;4998567;28;20444;-79
2023/05/09 05:50:58;;;;;;;5.95;3.85;;;;;;;16.80;55.88;99349.56;5017439;28;20038;-81
2023/05/09 05:53:24;;;;;;;9.57;3.58;;;;;;;16.89;55.56;99355.84;4957335;29;20494;-77
2023/05/09 05:55:49;;;;;;;6.97;3.30;;;;;;;16.91;55.49;99353.91;4940057;29;20058;-77
2023/05/09 05:58:15;;;;;;;8.93;3.10;;;;;;;17.28;62.52;99358.34;4940105;29;20039;-81
2023/05/09 06:00:40;;;;;;;6.97;3.00;;;;;;;17.99;61.38;99356.88;4924477;29;20152;-80
2023/05/09 06:03:06;;;;;;;4.85;2.55;;;;;;;18.53;59.13;99359.56;4956967;29;20047;-79
2023/05/09 06:05:35;;;;;;;12.60;2.95;;;;;;;18.88;57.92;99354.34;4938422;29;20046;-84
2023/05/09 06:08:00;;;;;;;6.00;2.60;;;;;;;19.06;57.10;99356.97;4920894;29;20130;-79
2023/05/09 06:10:26;;;;;;;5.72;2.60;;;;;;;19.22;56.09;99353.56;4940615;29;20058;-81
2023/05/09 06:12:54;;;;;;;8.55;3.10;;;;;;;19.19;55.23;99373.22;4921433;29;20543;-79
2023/05/09 06:15:23;;;;;;;4.32;2.53;;;;;;;19.07;55.00;99366.53;4906273;29;20054;-80
2023/05/09 06:17:48;;;;;;;;;;;;;;;19.01;54.82;99373.31;4937816;29;20118;-78
2023/05/09 06:20:18;;;;;;;4.68;2.50;;;;;;;18.86;55.11;99373.03;4922073;29;19957;-80
2023/05/09 06:22:48;;;;;;;7.57;2.60;;;;;;;18.80;55.43;99370.97;4935141;29;20400;-80
2023/05/09 06:25:14;;;;;;;6.18;3.00;;;;;;;18.76;55.47;99374.91;4988459;28;20046;-80
2023/05/09 06:27:43;;;;;;;5.07;2.53;;;;;;;18.70;55.54;99370.25;4999647;28;20049;-80
2023/05/09 06:30:19;;;;;;;5.38;2.60;;;;;;;18.66;55.57;99368.88;5000489;28;20038;-81
2023/05/09 06:32:45;;;;;;;6.40;3.05;;;;;;;18.63;56.03;99370.03;4985255;28;20050;-77
2023/05/09 06:35:15;;;;;;;7.35;2.78;;;;;;;18.61;55.95;99375.47;5028336;28;20048;-85
2023/05/09 06:38:27;;;;;;;6.35;2.67;;;;;;;18.58;56.35;99375.78;5034865;28;20489;-88
2023/05/09 06:40:55;;;;;;;9.75;2.72;;;;;;;18.56;56.63;99375.06;5031432;28;20560;-83
2023/05/09 06:43:20;;;;;;;5.20;2.60;;;;;;;18.95;56.91;99371.28;5009615;28;20027;-86
2023/05/09 06:48:22;;;;;;;6.57;2.42;;;;;;;19.63;54.40;99374.94;5007976;28;20058;-86
2023/05/09 06:50:49;;;;;;;7.85;2.40;;;;;;;19.61;53.32;99372.44;5012658;28;20025;-87
2023/05/09 06:53:21;;;;;;;9.70;3.10;;;;;;;19.27;53.01;99373.28;5046937;23;20054;-89
2023/05/09 06:55:47;;;;;;;8.02;3.67;;;;;;;19.01;52.61;99383.03;5190645;22;20084;-85
2023/05/09 06:58:13;;;;;;;4.90;3.47;;;;;;;18.71;52.50;99383.31;4994768;28;20026;-86
2023/05/09 07:00:39;;;;;;;5.75;3.42;;;;;;;18.53;53.58;99382.50;4994721;28;20068;-88
2023/05/09 07:03:06;;;;;;;8.25;3.97;;;;;;;18.34;53.74;99379.03;4987706;28;20042;-84
2023/05/09 07:05:33;;;;;;;7.63;3.35;;;;;;;18.25;53.93;99385.25;4966270;28;20476;-83
2023/05/09 07:08:10;;;;;;;7.38;3.35;;;;;;;18.10;53.98;99376.97;4985849;28;20065;-85
2023/05/09 07:10:37;;;;;;;9.32;3.50;;;;;;;18.08;54.83;99386.88;5003254;28;20061;-83
2023/05/09 07:13:04;;;;;;;6.75;3.50;;;;;;;18.03;54.79;99387.31;4968328;28;20042;-81
2023/05/09 07:15:30;;;;;;;4.93;2.60;;;;;;;18.42;57.88;99391.47;4986225;28;20049;-82
2023/05/09 07:17:57;;;;;;;9.15;2.72;;;;;;;18.55;56.89;99389.31;4983228;28;20421;-83
2023/05/09 07:20:22;;;;;;;7.85;3.17;;;;;;;18.57;54.83;99400.53;4980977;28;20044;-80
2023/05/09 07:22:47;;;;;;;6.75;3.20;;;;;;;18.40;53.78;99385.53;4964174;28;20052;-78
2023/05/09 07:25:14;;;;;;;5.78;3.33;;;;;;;18.22;53.66;99380.25;4981258;28;20483;-77
2023/05/09 07:27:40;;;;;;;6.18;3.60;;;;;;;18.14;53.19;99386.28;4975781;28;20078;-74
2023/05/09 07:30:07;;;;;;;7.00;3.90;;;;;;;18.05;53.25;99377.44;4944923;28;20159;-78
2023/05/09 07:32:44;;;;;;;5.60;3.50;;;;;;;18.07;52.79;99383.41;4945247;28;20395;-78
2023/05/09 07:35:11;;;;;;;7.63;3.45;;;;;;;18.08;52.77;99385.06;4981518;28;20325;-82
2023/05/09 07:37:53;;;;;;;5.10;3.58;;;;;;;18.10;52.32;99389.38;4998770;28;20034;-82
2023/05/09 07:40:20;;;;;;;5.93;3.63;;;;;;;18.10;52.24;99390.19;4982403;28;20042;-81
2023/05/09 07:42:48;;;;;;;6.88;3.70;;;;;;;18.10;51.66;99387.56;4996431;28;20453;-80
2023/05/09 07:45:30;;;;;;;5.88;3.15;;;;;;;18.06;51.86;99383.56;4964487;28;20469;-77
2023/05/09 07:48:08;;;;;;;7.22;3.85;;;;;;;18.01;51.54;99385.81;4971824;28;20045;-88
2023/05/09 07:50:34;;;;;;;8.95;3.58;;;;;;;17.99;51.74;99385.13;5000870;28;20069;-83
2023/05/09 07:52:59;;;;;;;6.82;3.45;;;;;;;17.86;51.46;99370.44;4953891;28;20057;-83
2023/05/09 07:55:27;;;;;;;5.00;3.67;;;;;;;17.86;51.19;99390.75;4985807;28;20054;-80
2023/05/09 07:58:04;;;;;;;5.10;3.17;;;;;;;17.71;51.00;99377.19;4971296;28;20049;-86
2023/05/09 08:00:30;;;;;;;7.45;3.75;;;;;;;17.68;51.40;99380.16;5001222;28;20070;-84
2023/05/09 08:02:59;;;;;;;6.10;3.28;;;;;;;17.58;51.82;99366.97;4982997;28;20461;-83
2023/05/09 08:05:28;;;;;;;;;;;;;;;17.61;52.02;99387.78;4964415;28;20077;-81
2023/05/09 08:07:54;;;;;;;8.02;3.70;;;;;;;17.69;57.64;99387.88;5002282;28;19919;-83
2023/05/09 08:10:22;;;;;;;9.60;3.35;;;;;;;17.71;55.42;99393.88;4977532;28;20517;-80
2023/05/09 08:12:47;;;;;;;6.53;3.70;;;;;;;17.66;54.89;99385.56;4977405;28;20045;-84
2023/05/09 08:15:22;;;;;;;11.63;3.63;;;;;;;17.64;54.22;99391.97;4961874;28;20038;-81
2023/05/09 08:17:47;;;;;;;8.60;3.40;;;;;;;17.64;53.73;99405.16;4993656;28;20049;-81
2023/05/09 08:20:18;;;;;;;8.48;3.55;;;;;;;17.63;53.07;99401.69;4948094;28;20038;-81
2023/05/09 08:22:44;;;;;;;5.07;3.90;;;;;;;17.61;53.09;99392.25;4996804;28;20034;-80
2023/05/09 08:25:12;;;;;;;7.65;3.58;;;;;;;17.53;52.70;99401.72;4977466;28;20050;-81
2023/05/09 08:27:39;;;;;;;5.38;3.30;;;;;;;17.49;52.65;99397.72;4962169;28;20034;-82
2023/05/09 08:30:09;;;;;;;6.07;3.45;;;;;;;17.41;52.63;99388.84;4977515;28;20050;-80
2023/05/09 08:32:35;;;;;;;9.57;4.13;;;;;;;17.44;52.25;99399.97;4960773;28;20038;-86
2023/05/09 08:35:03;;;;;;;5.30;3.53;;;;;;;17.45;52.10;99403.44;4949230;28;20042;-84
2023/05/09 08:37:30;;;;;;;7.15;3.45;;;;;;;17.41;51.88;99399.41;4982504;28;20425;-85
2023/05/09 08:39:56;;;;;;;5.65;3.35;;;;;;;17.39;51.79;99399.56;4989795;28;20054;-79
2023/05/09 08:42:23;;;;;;;5.72;3.47;;;;;;;17.34;51.77;99397.34;4962828;28;20045;-78
2023/05/09 08:44:51;;;;;;;7.13;3.40;;;;;;;17.32;51.55;99398.50;4947425;28;20051;-82
2023/05/09 08:47:20;;;;;;;;;;;;;;;17.29;51.71;99396.97;4980223;28;20065;-82
2023/05/09 08:49:48;;;;;;;6.50;3.58;;;;;;;17.25;51.50;99405.31;4999040;28;19917;-86
2023/05/09 08:52:34;;;;;;;7.78;3.22;;;;;;;17.18;51.31;99400.59;4986069;28;20053;-82
2023/05/09 08:55:08;;;;;;;6.03;3.47;;;;;;;17.22;51.28;99398.53;4981448;28;20034;-81
2023/05/09 08:57:44;;;;;;;4.00;3.20;;;;;;;17.24;51.16;99404.47;4980968;28;20062;-83
2023/05/09 09:00:12;;;;;;;5.15;3.33;;;;;;;17.28;51.02;99403.19;4978977;28;20038;-83
2023/05/09 09:02:41;;;;;;;8.57;3.60;;;;;;;17.21;50.87;99398.66;4946990;28;20046;-83
2023/05/09 09:05:07;;;;;;;5.97;3.40;;;;;;;17.27;50.64;99401.56;4944599;28;20042;-81
2023/05/09 09:07:36;;;;;;;4.75;3.50;;;;;;;17.26;50.63;99396.44;4947177;28;20121;-79
2023/05/09 09:10:02;;;;;;;7.78;3.60;;;;;;;17.25;50.53;99395.59;4947972;28;20463;-81
2023/05/09 09:12:28;;;;;;;6.20;3.20;;;;;;;17.23;50.57;99394.91;4947660;28;20478;-82
2023/05/09 09:14:56;;;;;;;4.80;3.10;;;;;;;17.31;50.41;99396.81;4946938;28;20126;-83
2023/05/09 09:17:26;;;;;;;4.85;2.95;;;;;;;17.29;50.44;99398.78;4950065;28;20034;-81
2023/05/09 09:19:54;;;;;;;6.43;2.78;;;;;;;17.27;50.10;99395.47;4962010;28;20048;-85
2023/05/09 09:22:21;;;;;;;5.82;2.97;;;;;;;17.28;50.16;99402.38;4963026;28;20494;-81
2023/05/09 09:24:46;;;;;;;4.35;2.85;;;;;;;17.27;50.03;99400.72;4978197;28;20109;-82
2023/05/09 09:27:14;;;;;;;4.43;3.05;;;;;;;17.26;49.97;99405.16;4946686;28;20406;-81
2023/05/09 09:29:39;;;;;;;6.95;3.00;;;;;;;17.25;49.86;99403.53;4963117;28;20407;-81
2023/05/09 09:32:05;;;;;;;3.95;2.80;;;;;;;17.25;49.98;99410.59;4964257;28;20061;-82
2023/05/09 09:34:32;;;;;;;4.65;2.80;;;;;;;17.24;49.80;99408.94;4962430;28;20040;-81
2023/05/09 09:36:57;;;;;;;4.72;2.50;;;;;;;17.18;49.67;99413.78;4947466;28;20117;-81
2023/05/09 09:39:23;;;;;;;3.45;2.60;;;;;;;17.15;49.55;99395.59;4947047;28;20101;-80
2023/05/09 09:41:50;;;;;;;3.45;2.30;;;;;;;17.25;49.08;99407.94;4944614;28;20116;-80
2023/05/09 09:44:17;;;;;;;2.83;2.40;;;;;;;17.23;49.03;99391.44;4993719;28;20508;-82
2023/05/09 09:46:47;;;;;;;5.13;2.50;;;;;;;17.30;48.84;99389.88;4962926;28;20046;-81
2023/05/09 09:49:14;;;;;;;6.88;2.90;;;;;;;17.44;48.85;99399.97;4965224;28;20406;-81
2023/05/09 09:51:40;;;;;;;4.87;2.40;;;;;;;17.53;48.61;99406.19;4948617;28;20034;-82
2023/05/09 09:54:07;;;;;;;4.57;2.40;;;;;;;17.58;48.50;99382.81;4948844;28;20039;-80
2023/05/09 09:56:43;;;;;;;2.70;2.10;;;;;;;17.77;48.13;99396.91;4965986;28;20054;-83
2023/05/09 09:59:11;;;;;;;6.72;2.60;;;;;;;17.87;48.02;99403.78;4949688;28;20156;-84
2023/05/09 10:01:57;;;;;;;3.75;2.13;;;;;;;17.97;47.91;99395.84;4951315;28;20049;-85
2023/05/09 10:04:25;;;;;;;6.32;2.30;;;;;;;18.10;47.55;99403.41;4981025;28;20110;-84
2023/05/09 10:06:59;;;;;;;3.45;2.20;;;;;;;18.22;47.48;99394.28;4968763;28;20117;-85
2023/05/09 10:09:25;;;;;;;3.72;2.47;;;;;;;18.38;47.18;99403.34;4981787;28;20084;-80
2023/05/09 10:11:51;;;;;;;3.08;2.13;;;;;;;18.53;46.97;99399.22;4963724;28;20038;-81
2023/05/09 10:14:22;;;;;;;6.20;2.60;;;;;;;18.72;46.21;99394.72;4964490;28;20065;-79
2023/05/09 10:16:48;;;;;;;6.50;2.97;;;;;;;18.84;45.65;99382.94;4949162;28;20049;-82
2023/05/09 10:19:16;;;;;;;7.28;2.70;;;;;;;19.06;45.21;99386.06;4964352;28;20045;-80
2023/05/09 10:21:42;;;;;;;7.75;2.65;;;;;;;19.19;44.90;99388.28;4962703;28;20050;-79
2023/05/09 10:24:07;;;;;;;4.63;2.53;;;;;;;19.28;44.18;99374.94;4962868;28;20039;-81
2023/05/09 10:26:33;;;;;;;5.93;3.00;;;;;;;19.38;43.55;99381.94;4945010;28;20045;-82
2023/05/09 10:28:59;;;;;;;8.15;2.60;;;;;;;19.42;43.25;99381.47;4947362;28;20046;-81
2023/05/09 10:31:25;;;;;;;5.22;2.70;;;;;;;19.50;42.88;99394.75;4947953;28;20073;-84
2023/05/09 10:33:51;;;;;;;8.30;2.95;;;;;;;19.60;42.25;99383.19;4963156;28;20507;-80
2023/05/09 10:36:19;;;;;;;4.55;2.78;;;;;;;19.70;41.59;99382.09;4946821;28;20117;-80
2023/05/09 10:38:45;;;;;;;5.15;2.42;;;;;;;19.81;41.27;99385.44;4946338;28;20569;-80
2023/05/09 10:41:11;;;;;;;6.35;2.60;;;;;;;19.93;41.07;99378.03;4946077;28;20506;-79
2023/05/09 10:43:37;;;;;;;6.72;2.45;;;;;;;20.06;40.63;99376.56;4962326;28;20109;-81
2023/05/09 10:46:03;;;;;;;6.43;2.95;;;;;;;20.17;40.10;99371.94;4962152;28;20035;-80
2023/05/09 10:48:32;;;;;;;6.50;2.63;;;;;;;20.29;39.77;99368.00;4962398;28;20046;-79
2023/05/09 10:50:58;;;;;;;5.05;2.90;;;;;;;20.47;39.59;99375.78;4962749;28;20074;-80
2023/05/09 10:53:25;;;;;;;4.38;2.65;;;;;;;20.59;39.21;99371.81;4962554;28;20084;-79
2023/05/09 10:55:55;;;;;;;6.53;2.33;;;;;;;20.64;39.18;99367.84;4945743;28;20498;-80
2023/05/09 10:58:23;;;;;;;3.97;2.55;;;;;;;20.70;39.32;99376.00;4950081;28;20074;-82
2023/05/09 11:00:50;;;;;;;8.07;2.67;;;;;;;20.78;39.01;99378.63;4994961;28;20038;-80
2023/05/09 11:03:18;;;;;;;3.85;2.20;;;;;;;20.89;38.72;99374.81;4961827;28;20140;-79
2023/05/09 11:05:43;;;;;;;10.25;2.80;;;;;;;20.98;38.84;99372.13;4962207;28;20545;-80
2023/05/09 11:08:18;;;;;;;5.40;2.80;;;;;;;21.04;38.69;99374.94;4961722;28;20038;-80
2023/05/09 11:10:44;;;;;;;6.18;2.60;;;;;;;21.12;38.46;99372.25;4994814;28;20045;-79
2023/05/09 11:13:10;;;;;;;4.40;2.63;;;;;;;21.18;38.50;99364.63;4945784;28;20038;-80
2023/05/09 11:15:58;;;;;;;9.27;2.72;;;;;;;21.32;38.37;99371.91;4945992;28;20411;-80
2023/05/09 11:18:23;;;;;;;;;;;;;;;21.39;38.01;99364.88;4964101;28;20042;-79
2023/05/09 11:20:50;;;;;;;6.65;2.47;;;;;;;21.43;37.72;99357.41;4978531;28;19968;-82
2023/05/09 11:23:19;;;;;;;3.80;2.35;;;;;;;21.49;37.91;99356.72;4945628;28;20117;-80
2023/05/09 11:25:45;;;;;;;7.72;2.30;;;;;;;21.54;37.44;99358.88;4945752;28;20037;-79
2023/05/09 11:28:24;;;;;;;3.58;2.10;;;;;;;21.55;37.48;99363.19;4977206;28;20450;-80
2023/05/09 11:30:49;;;;;;;5.68;2.50;;;;;;;21.56;37.53;99364.88;4946427;28;20038;-79
2023/05/09 11:33:25;;;;;;;6.30;2.28;;;;;;;21.48;37.60;99360.38;4945032;28;20105;-81
2023/05/09 11:36:18;;;;;;;7.35;2.30;;;;;;;21.44;37.59;99362.56;4945868;28;20038;-80
2023/05/09 11:38:45;;;;;;;9.20;2.50;;;;;;;21.48;37.25;99360.38;4977198;28;20497;-80